createdAt,value
2018-11-27T00:00:37.016Z,7.50
2018-11-27T00:03:46.498Z,7.50
2018-11-27T00:06:50.883Z,7.50
2018-11-27T00:09:55.033Z,7.50
2018-11-27T00:12:59.326Z,7.50
2018-11-27T00:16:03.777Z,7.50
2018-11-27T00:19:08.000Z,7.50
2018-11-27T00:22:12.505Z,7.50
2018-11-27T00:25:18.288Z,7.50
2018-11-27T00:28:22.323Z,7.50
2018-11-27T00:31:26.563Z,7.40
2018-11-27T00:34:30.608Z,7.40
2018-11-27T00:37:34.669Z,7.40
2018-11-27T00:40:39.064Z,7.40
2018-11-27T00:43:43.580Z,7.40
2018-11-27T00:46:47.589Z,7.50
2018-11-27T00:49:51.592Z,7.50
2018-11-27T00:52:55.566Z,7.50
2018-11-27T00:55:59.611Z,7.40
2018-11-27T00:59:03.636Z,7.50
2018-11-27T01:02:07.899Z,7.50
2018-11-27T01:05:13.056Z,7.40
2018-11-27T01:08:16.990Z,7.30
2018-11-27T01:11:20.977Z,7.40
2018-11-27T01:14:24.868Z,7.40
2018-11-27T01:17:28.871Z,7.40
2018-11-27T01:20:32.836Z,7.50
2018-11-27T01:23:36.831Z,7.60
2018-11-27T01:26:40.730Z,7.60
2018-11-27T01:29:45.112Z,7.60
2018-11-27T01:32:49.468Z,7.60
2018-11-27T01:35:53.420Z,7.60
2018-11-27T01:38:57.377Z,7.60
2018-11-27T01:42:01.342Z,7.60
2018-11-27T01:45:06.430Z,7.50
2018-11-27T01:48:10.405Z,7.60
2018-11-27T01:51:14.281Z,7.60
2018-11-27T01:54:18.259Z,7.60
2018-11-27T01:57:22.441Z,7.60
2018-11-27T02:00:28.439Z,7.60
2018-11-27T02:03:32.320Z,7.70
2018-11-27T02:06:36.238Z,7.60
2018-11-27T02:09:40.216Z,7.60
2018-11-27T02:12:45.384Z,7.60
2018-11-27T02:15:49.270Z,7.60
2018-11-27T02:18:53.267Z,7.60
2018-11-27T02:21:57.249Z,7.60
2018-11-27T02:25:01.329Z,7.60
2018-11-27T02:28:05.528Z,7.70
2018-11-27T02:31:09.437Z,7.70
2018-11-27T02:34:13.376Z,7.70
2018-11-27T02:37:17.291Z,7.70
2018-11-27T02:40:21.317Z,7.70
2018-11-27T02:43:25.245Z,7.70
2018-11-27T02:46:29.176Z,7.70
2018-11-27T02:49:33.087Z,7.70
2018-11-27T02:52:37.087Z,7.80
2018-11-27T02:55:40.986Z,7.80
2018-11-27T02:58:44.882Z,7.70
2018-11-27T03:01:48.772Z,7.70
2018-11-27T03:04:52.683Z,7.70
2018-11-27T03:07:56.615Z,7.70
2018-11-27T03:11:00.747Z,7.70
2018-11-27T03:14:05.352Z,7.70
2018-11-27T03:17:09.286Z,7.70
2018-11-27T03:20:14.255Z,7.60
2018-11-27T03:23:18.177Z,7.60
2018-11-27T03:26:22.211Z,7.50
2018-11-27T03:29:26.101Z,7.50
2018-11-27T03:32:30.923Z,7.50
2018-11-27T03:35:35.147Z,7.50
2018-11-27T03:38:39.695Z,7.50
2018-11-27T03:41:43.573Z,7.50
2018-11-27T03:44:47.534Z,7.50
2018-11-27T03:47:52.037Z,7.50
2018-11-27T03:50:55.977Z,7.40
2018-11-27T03:53:59.901Z,7.40
2018-11-27T03:57:04.296Z,7.40
2018-11-27T04:00:32.576Z,7.40
2018-11-27T04:03:36.512Z,7.40
2018-11-27T04:06:40.428Z,7.40
2018-11-27T04:09:44.356Z,7.40
2018-11-27T04:12:48.521Z,7.50
2018-11-27T04:15:52.529Z,7.50
2018-11-27T04:18:56.451Z,7.50
2018-11-27T04:22:00.364Z,7.50
2018-11-27T04:25:04.828Z,7.40
2018-11-27T04:28:08.787Z,7.40
2018-11-27T04:31:12.659Z,7.40
2018-11-27T04:34:16.557Z,7.50
2018-11-27T04:37:20.777Z,7.40
2018-11-27T04:40:25.168Z,7.40
2018-11-27T04:43:30.295Z,7.50
2018-11-27T04:46:34.541Z,7.60
2018-11-27T04:49:38.933Z,7.70
2018-11-27T04:52:43.069Z,7.70
2018-11-27T04:55:47.395Z,7.70
2018-11-27T04:58:51.711Z,7.60
2018-11-27T05:01:55.712Z,7.60
2018-11-27T05:05:00.046Z,7.60
2018-11-27T05:08:04.436Z,7.60
2018-11-27T05:11:08.753Z,7.60
2018-11-27T05:14:13.068Z,7.70
2018-11-27T05:17:17.234Z,7.60
2018-11-27T05:20:21.948Z,7.70
2018-11-27T05:23:26.262Z,7.70
2018-11-27T05:26:30.637Z,7.80
2018-11-27T05:29:34.850Z,7.70
2018-11-27T05:32:39.137Z,7.60
2018-11-27T05:35:43.467Z,7.70
2018-11-27T05:38:47.932Z,7.70
2018-11-27T05:41:52.316Z,7.70
2018-11-27T05:44:56.580Z,7.80
2018-11-27T05:48:00.833Z,7.70
2018-11-27T05:51:06.120Z,7.70
2018-11-27T05:54:10.444Z,7.80
2018-11-27T05:57:14.657Z,7.70
2018-11-27T06:00:22.684Z,7.70
2018-11-27T06:03:26.906Z,7.80
2018-11-27T06:06:31.188Z,7.70
2018-11-27T06:09:35.444Z,7.60
2018-11-27T06:12:39.783Z,7.60
2018-11-27T06:15:44.262Z,7.70
2018-11-27T06:18:48.604Z,7.70
2018-11-27T06:21:52.870Z,7.70
2018-11-27T06:24:57.140Z,7.70
2018-11-27T06:28:05.297Z,7.70
2018-11-27T06:31:09.609Z,7.60
2018-11-27T06:34:14.136Z,7.50
2018-11-27T06:37:18.432Z,7.50
2018-11-27T06:40:25.687Z,7.40
2018-11-27T06:43:30.774Z,7.40
2018-11-27T06:46:34.908Z,7.40
2018-11-27T06:49:39.036Z,7.40
2018-11-27T06:52:43.221Z,7.30
2018-11-27T06:55:47.550Z,7.10
2018-11-27T06:58:51.835Z,7.10
2018-11-27T07:01:56.319Z,7.00
2018-11-27T07:05:00.470Z,7.00
2018-11-27T07:08:04.871Z,7.00
2018-11-27T07:11:09.167Z,7.00
2018-11-27T07:14:13.572Z,7.00
2018-11-27T07:17:17.909Z,7.10
2018-11-27T07:20:22.267Z,6.90
2018-11-27T07:23:26.671Z,6.70
2018-11-27T07:26:30.875Z,6.60
2018-11-27T07:29:35.183Z,6.60
2018-11-27T07:32:39.773Z,6.70
2018-11-27T07:35:44.219Z,6.60
2018-11-27T07:38:48.565Z,6.70
2018-11-27T07:41:52.981Z,6.70
2018-11-27T07:44:57.522Z,6.40
2018-11-27T07:48:01.925Z,6.30
2018-11-27T07:51:06.595Z,6.40
2018-11-27T07:54:10.929Z,6.30
2018-11-27T07:57:15.335Z,6.40
2018-11-27T08:00:21.873Z,6.30
2018-11-27T08:03:26.226Z,6.30
2018-11-27T08:06:30.550Z,6.30
2018-11-27T08:09:34.832Z,6.30
2018-11-27T08:12:39.140Z,6.30
2018-11-27T08:15:43.552Z,6.30
2018-11-27T08:18:47.819Z,6.40
2018-11-27T08:21:52.121Z,6.40
2018-11-27T08:24:56.572Z,6.30
2018-11-27T08:28:00.993Z,6.30
2018-11-27T08:31:05.309Z,6.30
2018-11-27T08:34:09.655Z,6.40
2018-11-27T08:37:13.960Z,6.40
2018-11-27T08:40:19.141Z,6.20
2018-11-27T08:43:23.419Z,6.10
2018-11-27T08:46:27.744Z,6.20
2018-11-27T08:49:32.076Z,6.30
2018-11-27T08:52:37.542Z,6.30
2018-11-27T08:55:43.520Z,6.30
2018-11-27T08:58:48.024Z,6.30
2018-11-27T09:01:52.102Z,6.30
2018-11-27T09:04:56.465Z,6.30
2018-11-27T09:08:01.040Z,6.40
2018-11-27T09:11:05.837Z,6.30
2018-11-27T09:14:10.719Z,6.30
2018-11-27T09:17:15.089Z,6.40
2018-11-27T09:20:19.369Z,6.40
2018-11-27T09:23:23.570Z,6.50
2018-11-27T09:26:28.005Z,6.60
2018-11-27T09:29:32.163Z,6.50
2018-11-27T09:32:36.339Z,6.60
2018-11-27T09:35:40.721Z,6.70
2018-11-27T09:38:45.019Z,6.90
2018-11-27T09:41:49.226Z,7.00
2018-11-27T09:44:53.500Z,7.10
2018-11-27T09:47:58.374Z,7.10
2018-11-27T09:51:02.827Z,7.10
2018-11-27T09:54:07.725Z,7.00
2018-11-27T09:57:12.052Z,7.00
2018-11-27T10:00:18.371Z,7.10
2018-11-27T10:03:22.541Z,7.20
2018-11-27T10:06:26.806Z,7.30
2018-11-27T10:09:31.276Z,7.30
2018-11-27T10:12:35.754Z,7.40
2018-11-27T10:15:40.049Z,7.30
2018-11-27T10:18:44.615Z,7.40
2018-11-27T10:21:49.040Z,7.50
2018-11-27T10:24:53.229Z,7.50
2018-11-27T10:27:57.757Z,7.50
2018-11-27T10:31:01.968Z,7.70
2018-11-27T10:34:06.833Z,7.70
2018-11-27T10:37:11.133Z,7.80
2018-11-27T10:40:15.535Z,7.80
2018-11-27T10:43:20.212Z,7.80
2018-11-27T10:46:24.431Z,7.80
2018-11-27T10:49:28.734Z,7.80
2018-11-27T10:52:33.151Z,7.80
2018-11-27T10:55:37.686Z,7.70
2018-11-27T10:58:42.149Z,7.70
2018-11-27T11:01:51.980Z,7.70
2018-11-27T11:04:56.452Z,7.70
2018-11-27T11:08:00.915Z,7.80
2018-11-27T11:11:05.237Z,7.90
2018-11-27T11:14:09.717Z,7.90
2018-11-27T11:17:14.178Z,7.90
2018-11-27T11:20:18.605Z,7.90
2018-11-27T11:23:22.896Z,7.80
2018-11-27T11:26:27.254Z,7.70
2018-11-27T11:29:31.395Z,7.80
2018-11-27T11:32:35.597Z,7.90
2018-11-27T11:35:39.915Z,7.70
2018-11-27T11:38:44.244Z,7.60
2018-11-27T11:41:49.349Z,7.50
2018-11-27T11:44:53.740Z,7.40
2018-11-27T11:47:58.150Z,7.40
2018-11-27T11:51:02.499Z,7.20
2018-11-27T11:54:06.781Z,7.10
2018-11-27T11:57:11.167Z,7.10
2018-11-27T12:00:20.830Z,7.20
2018-11-27T12:03:25.226Z,7.30
2018-11-27T12:06:29.347Z,7.20
2018-11-27T12:09:33.640Z,7.00
2018-11-27T12:12:38.497Z,7.00
2018-11-27T12:15:42.707Z,7.10
2018-11-27T12:18:46.792Z,7.00
2018-11-27T12:21:51.115Z,7.00
2018-11-27T12:24:55.462Z,7.00
2018-11-27T14:56:50.654Z,5.30
2018-11-27T14:59:54.813Z,5.30
2018-11-27T15:02:58.775Z,5.40
2018-11-27T15:06:02.769Z,5.40
2018-11-27T15:09:10.127Z,5.50
2018-11-27T15:12:14.523Z,5.50
2018-11-27T15:15:18.576Z,5.60
2018-11-27T15:18:22.846Z,5.60
2018-11-27T15:21:26.846Z,5.60
2018-11-27T15:24:30.913Z,5.70
2018-11-27T15:27:35.096Z,5.70
2018-11-27T15:30:39.888Z,5.70
2018-11-27T15:33:43.930Z,5.70
2018-11-27T15:36:48.418Z,5.70
2018-11-27T15:39:54.640Z,5.80
2018-11-27T15:42:59.326Z,5.80
2018-11-27T15:46:03.887Z,5.80
2018-11-27T15:49:08.251Z,5.70
2018-11-27T15:52:12.561Z,5.70
2018-11-27T15:55:21.623Z,5.70
2018-11-27T15:58:26.274Z,5.70
2018-11-27T16:01:31.737Z,5.80
2018-11-27T16:04:36.020Z,5.70
2018-11-27T16:07:41.923Z,5.60
2018-11-27T16:10:46.407Z,5.60
2018-11-27T16:13:55.419Z,5.60
2018-11-27T16:16:55.307Z,5.60
2018-11-27T16:20:02.198Z,5.50
2018-11-27T16:23:08.695Z,5.40
2018-11-27T16:26:13.501Z,5.30
2018-11-27T16:29:18.375Z,5.20
2018-11-27T16:32:22.662Z,5.20
2018-11-27T16:35:26.722Z,5.20
2018-11-27T16:38:31.057Z,5.20
2018-11-27T16:41:35.497Z,5.10
2018-11-27T16:44:39.914Z,5.10
2018-11-27T16:47:44.672Z,5.10
2018-11-27T16:50:48.610Z,5.10
2018-11-27T16:53:53.169Z,5.10
2018-11-27T16:56:57.701Z,5.10
2018-11-27T17:00:02.105Z,5.10
2018-11-27T17:03:07.562Z,5.10
2018-11-27T17:06:12.218Z,5.20
2018-11-27T17:09:17.344Z,5.20
2018-11-27T17:12:23.141Z,5.20
2018-11-27T17:15:28.801Z,5.10
2018-11-27T17:18:33.192Z,5.10
2018-11-27T17:21:37.221Z,5.10
2018-11-27T17:24:41.660Z,5.10
2018-11-27T17:27:46.218Z,5.20
2018-11-27T17:31:07.978Z,5.10
2018-11-27T17:34:14.150Z,5.10
2018-11-27T17:37:18.600Z,5.10
2018-11-27T17:40:23.105Z,5.00
2018-11-27T17:43:27.332Z,5.00
2018-11-27T17:46:32.179Z,5.10
2018-11-27T17:49:36.354Z,5.00
2018-11-27T17:52:40.781Z,5.00
2018-11-27T17:55:44.995Z,5.10
2018-11-27T17:58:49.347Z,5.10
2018-11-27T18:01:53.710Z,5.00
2018-11-27T18:04:58.133Z,4.90
2018-11-27T18:08:02.578Z,4.90
2018-11-27T18:11:06.885Z,4.80
2018-11-27T18:14:11.390Z,4.50
2018-11-27T18:17:15.962Z,4.60
2018-11-27T18:20:20.484Z,4.70
2018-11-27T18:23:24.807Z,4.80
2018-11-27T18:26:28.956Z,4.80
2018-11-27T18:29:39.906Z,4.70
2018-11-27T18:32:44.403Z,4.70
2018-11-27T18:35:48.783Z,4.60
2018-11-27T18:38:53.062Z,4.60
2018-11-27T18:41:57.269Z,4.60
2018-11-27T18:45:01.422Z,4.60
2018-11-27T18:48:05.974Z,4.70
2018-11-27T18:51:10.392Z,4.70
2018-11-27T18:54:14.908Z,4.70
2018-11-27T18:57:19.611Z,4.80
2018-11-27T19:00:26.732Z,4.70
2018-11-27T19:03:30.684Z,4.80
2018-11-27T19:06:35.188Z,4.80
2018-11-27T19:09:39.523Z,4.70
2018-11-27T19:12:43.723Z,4.70
2018-11-27T19:15:49.527Z,4.70
2018-11-27T19:18:53.127Z,4.70
2018-11-27T19:21:57.384Z,4.70
2018-11-27T19:25:02.044Z,4.70
2018-11-27T19:28:06.807Z,4.60
2018-11-27T19:31:11.229Z,4.70
2018-11-27T19:34:15.681Z,4.70
2018-11-27T19:37:19.783Z,4.70
2018-11-27T19:40:24.029Z,4.70
2018-11-27T19:43:28.027Z,4.70
2018-11-27T19:46:32.149Z,4.70
2018-11-27T19:49:37.212Z,4.60
2018-11-27T19:52:42.378Z,4.50
2018-11-27T19:55:46.966Z,4.50
2018-11-27T19:58:51.965Z,4.50
2018-11-27T20:01:56.338Z,4.40
2018-11-27T20:05:00.363Z,4.40
2018-11-27T20:08:04.975Z,4.30
2018-11-27T20:11:13.280Z,4.20
2018-11-27T20:14:17.328Z,4.20
2018-11-27T20:17:21.761Z,4.30
2018-11-27T20:20:27.759Z,4.30
2018-11-27T20:23:32.223Z,4.30
2018-11-27T20:26:39.126Z,4.30
2018-11-27T20:29:43.592Z,4.30
2018-11-27T20:32:49.578Z,4.20
2018-11-27T20:36:00.666Z,4.20
2018-11-27T20:39:08.110Z,4.20
2018-11-27T20:42:12.505Z,4.20
2018-11-27T20:45:19.646Z,4.20
2018-11-27T20:48:22.561Z,4.30
2018-11-27T20:51:27.190Z,4.20
2018-11-27T20:54:31.693Z,4.20
2018-11-27T20:57:36.033Z,4.10
2018-11-27T21:00:42.944Z,4.00
2018-11-27T21:03:47.865Z,3.90
2018-11-27T21:06:52.738Z,3.90
2018-11-27T21:09:57.078Z,3.90
2018-11-27T21:13:02.314Z,4.00
2018-11-27T21:16:07.546Z,4.00
2018-11-27T21:19:11.990Z,3.90
2018-11-27T21:22:16.411Z,4.00
2018-11-27T21:25:22.676Z,4.00
2018-11-27T21:28:27.165Z,4.10
2018-11-27T21:31:31.314Z,4.10
2018-11-27T21:34:35.524Z,4.10
2018-11-27T21:37:39.550Z,4.10
2018-11-27T21:40:43.982Z,4.10
2018-11-27T21:43:48.272Z,4.00
2018-11-27T21:46:52.307Z,4.00
2018-11-27T21:49:56.364Z,4.10
2018-11-27T21:53:01.492Z,4.10
2018-11-27T21:56:05.817Z,4.10
2018-11-27T21:59:09.812Z,4.10
2018-11-27T22:02:13.856Z,4.10
2018-11-27T22:05:18.187Z,4.20
2018-11-27T22:08:22.832Z,4.20
2018-11-27T22:11:27.108Z,4.30
2018-11-27T22:14:31.375Z,4.40
2018-11-27T22:17:35.897Z,4.30
2018-11-27T22:20:40.060Z,4.40
2018-11-27T22:23:44.570Z,4.60
2018-11-27T22:26:49.346Z,4.70
2018-11-27T22:29:53.319Z,4.60
2018-11-27T22:32:57.531Z,4.60
2018-11-27T22:36:01.839Z,4.50
2018-11-27T22:39:09.381Z,4.50
2018-11-27T22:42:13.587Z,4.50
2018-11-27T22:45:23.714Z,4.30
2018-11-27T22:48:28.017Z,4.30
2018-11-27T22:51:32.042Z,4.30
2018-11-27T22:54:36.145Z,4.30
2018-11-27T22:57:40.671Z,4.40
2018-11-27T23:00:51.596Z,4.20
2018-11-27T23:03:55.628Z,4.20
2018-11-27T23:06:59.978Z,4.30
2018-11-27T23:10:04.100Z,4.30
2018-11-27T23:13:08.229Z,4.40
2018-11-27T23:16:12.554Z,4.40
2018-11-27T23:19:16.956Z,4.50
2018-11-27T23:22:21.197Z,4.60
2018-11-27T23:25:25.297Z,4.60
2018-11-27T23:28:29.565Z,4.60
2018-11-27T23:31:33.630Z,4.40
2018-11-27T23:34:37.720Z,4.30
2018-11-27T23:37:42.124Z,4.30
2018-11-27T23:40:46.487Z,4.40
2018-11-27T23:43:51.457Z,4.40
2018-11-27T23:46:55.999Z,4.40
2018-11-27T23:50:00.628Z,4.50
2018-11-27T23:53:04.949Z,4.50
2018-11-27T23:56:09.324Z,4.50
2018-11-27T23:59:13.271Z,4.60
